Time;durP1;ratioP1;P1;durP2;ratioP2;P2;SDS_P1;SDS_P2;PMS_P1;PMS_P2;Temp;Humidity;BMP_temperature;BMP_pressure;BME280_temperature;BME280_humidity;BME280_pressure;Samples;Min_cycle;Max_cycle;Signal;HPM_P1;HPM_P2
2021/01/16 00:00:21;;;;;;;2.17;1.98;;;;;;;-0.20;53.57;102107.25;691749;28;46178;-64
2021/01/16 00:00:43;;;;;;;2.42;2.00;;;;;;;-0.20;53.37;102112.56;691765;28;46292;-63
2021/01/16 00:01:06;;;;;;;3.55;2.25;;;;;;;-0.21;53.43;102110.81;692451;28;21530;-64
2021/01/16 00:01:27;;;;;;;2.00;1.90;;;;;;;-0.21;53.27;102110.81;689728;28;92029;-63
2021/01/16 00:01:50;;;;;;;2.00;1.90;;;;;;;-0.21;53.37;102107.31;693484;28;1945;-64
2021/01/16 00:02:11;;;;;;;2.33;2.15;;;;;;;-0.21;53.46;102110.81;690945;28;67602;-64
2021/01/16 00:02:33;;;;;;;2.50;2.30;;;;;;;-0.21;53.56;102116.13;692786;28;13332;-64
2021/01/16 00:02:55;;;;;;;2.88;2.45;;;;;;;-0.20;53.63;102114.38;691746;28;22408;-64
2021/01/16 00:03:17;;;;;;;2.38;2.17;;;;;;;-0.21;53.61;102113.47;691690;28;46413;-64
2021/01/16 00:03:38;;;;;;;1.95;1.85;;;;;;;-0.20;53.63;102120.53;692345;28;21516;-64
2021/01/16 00:03:59;;;;;;;1.90;1.80;;;;;;;-0.19;53.78;102110.75;691611;28;45249;-64
2021/01/16 00:04:20;;;;;;;2.17;1.98;;;;;;;-0.19;53.89;102116.06;692316;28;21664;-64
2021/01/16 00:04:42;;;;;;;2.30;2.10;;;;;;;-0.20;53.72;102107.25;692274;28;23435;-64
2021/01/16 00:05:04;;;;;;;2.28;2.08;;;;;;;-0.20;53.68;102103.75;691712;28;46333;-64
2021/01/16 00:05:27;;;;;;;2.10;2.00;;;;;;;-0.19;53.85;102108.09;691656;28;46469;-63
2021/01/16 00:05:50;;;;;;;2.30;2.10;;;;;;;-0.18;53.82;102112.50;690982;28;69510;-64
2021/01/16 00:06:11;;;;;;;2.10;2.00;;;;;;;-0.18;54.01;102107.19;690229;28;70250;-64
2021/01/16 00:06:35;;;;;;;2.20;2.10;;;;;;;-0.18;53.74;102101.88;692089;28;22393;-63
2021/01/16 00:06:57;;;;;;;2.10;2.00;;;;;;;-0.19;53.77;102105.44;688481;28;116306;-64
2021/01/16 00:07:18;;;;;;;2.15;2.05;;;;;;;-0.17;53.76;102111.56;691949;28;46340;-64
2021/01/16 00:07:42;;;;;;;2.13;1.92;;;;;;;-0.19;53.74;102108.97;691806;28;22319;-64
2021/01/16 00:08:05;;;;;;;2.25;2.00;;;;;;;-0.17;54.00;102111.56;690004;28;92069;-63
2021/01/16 00:08:27;;;;;;;2.10;2.00;;;;;;;-0.16;54.14;102112.41;690727;28;68445;-63
2021/01/16 00:08:49;;;;;;;2.40;2.20;;;;;;;-0.19;53.84;102103.66;691832;28;38959;-64
2021/01/16 00:09:10;;;;;;;2.50;2.30;;;;;;;-0.17;53.64;102111.56;691483;28;46137;-64
2021/01/16 00:09:32;;;;;;;2.42;2.22;;;;;;;-0.19;53.50;102106.31;692671;28;23339;-64
2021/01/16 00:09:53;;;;;;;2.42;2.22;;;;;;;-0.18;53.53;102109.84;691966;28;46419;-64
2021/01/16 00:10:15;;;;;;;2.20;2.00;;;;;;;-0.19;53.43;102102.78;692413;28;22935;-64
2021/01/16 00:10:39;;;;;;;2.53;2.30;;;;;;;-0.19;53.57;102103.66;690899;28;54925;-64
2021/01/16 00:11:01;;;;;;;2.40;2.20;;;;;;;-0.18;53.77;102107.19;690449;28;69420;-64
2021/01/16 00:11:22;;;;;;;2.50;2.30;;;;;;;-0.17;53.89;102105.38;692914;28;1249;-64
2021/01/16 00:11:49;;;;;;;2.53;2.20;;;;;;;-0.18;54.04;102104.53;691161;28;61858;-64
2021/01/16 00:12:10;;;;;;;2.45;2.25;;;;;;;-0.16;53.97;102101.78;692013;28;43321;-63
2021/01/16 00:12:31;;;;;;;2.67;2.55;;;;;;;-0.16;54.06;102105.28;692912;28;23334;-63
2021/01/16 00:12:53;;;;;;;2.80;2.60;;;;;;;-0.19;53.93;102110.75;692197;28;46362;-63
2021/01/16 00:13:16;;;;;;;2.40;2.30;;;;;;;-0.17;53.72;102106.25;691823;28;45263;-62
2021/01/16 00:13:37;;;;;;;2.60;2.40;;;;;;;-0.17;53.98;102111.56;692035;28;45270;-62
2021/01/16 00:13:59;;;;;;;2.47;2.28;;;;;;;-0.19;53.86;102108.97;692112;28;46269;-63
2021/01/16 00:14:20;;;;;;;2.40;2.20;;;;;;;-0.19;53.95;102106.31;693485;28;1084;-61
2021/01/16 00:14:41;;;;;;;2.45;2.25;;;;;;;-0.19;53.56;102105.44;693153;28;44360;-63
2021/01/16 00:15:04;;;;;;;2.83;2.60;;;;;;;-0.19;54.02;102103.66;695111;28;21540;-62
2021/01/16 00:15:26;;;;;;;2.90;2.63;;;;;;;-0.19;53.90;102102.78;695961;28;1792;-62
2021/01/16 00:16:13;;;;;;;3.22;2.35;;;;;;;-0.29;53.56;102088.25;688429;28;1768;-89
2021/01/16 00:16:35;;;;;;;3.13;2.58;;;;;;;-0.26;53.36;102098.72;685433;28;89629;-90
2021/01/16 00:17:00;;;;;;;2.67;2.47;;;;;;;-0.30;53.65;102091.81;686570;28;80374;-89
2021/01/16 00:17:21;;;;;;;2.47;2.30;;;;;;;-0.25;53.24;102100.44;684481;28;1335;-90
2021/01/16 00:17:44;;;;;;;2.40;2.20;;;;;;;-0.29;53.50;102090.91;683330;28;1323;-90
2021/01/16 00:18:09;;;;;;;2.42;2.22;;;;;;;-0.28;53.43;102093.50;682397;28;1315;-91
2021/01/16 00:18:32;;;;;;;2.40;2.20;;;;;;;-0.20;53.42;102106.41;684379;28;17429;-89
2021/01/16 00:18:55;;;;;;;2.45;2.30;;;;;;;-0.33;53.70;102081.34;681478;29;15893;-89
2021/01/16 00:19:17;;;;;;;2.38;2.17;;;;;;;-0.32;53.59;102091.06;681484;28;1532;-90
2021/01/16 00:19:40;;;;;;;2.05;1.95;;;;;;;-0.21;53.59;102105.50;680139;28;1075;-90
2021/01/16 00:20:05;;;;;;;2.20;2.10;;;;;;;-0.21;53.27;102105.50;682181;29;13998;-89
2021/01/16 00:20:59;;;;;;;2.47;2.28;;;;;;;-0.21;53.43;102104.66;768390;23;136395;-64
2021/01/16 00:21:20;;;;;;;2.20;2.00;;;;;;;-0.23;53.18;102104.75;686085;28;43497;-64
2021/01/16 00:21:42;;;;;;;2.20;2.00;;;;;;;-0.24;52.88;102103.00;683079;28;44881;-64
2021/01/16 00:22:03;;;;;;;2.28;2.10;;;;;;;-0.25;52.75;102103.97;680996;29;45946;-62
2021/01/16 00:22:25;;;;;;;2.35;2.15;;;;;;;-0.26;52.74;102106.69;685305;28;21555;-63
2021/01/16 00:22:48;;;;;;;1.83;1.73;;;;;;;-0.25;52.86;102103.97;687219;28;22384;-64
2021/01/16 00:23:09;;;;;;;2.03;1.92;;;;;;;-0.25;52.96;102108.38;685781;28;70205;-64
2021/01/16 00:23:30;;;;;;;2.22;2.13;;;;;;;-0.25;53.08;102105.72;686289;28;45403;-63
2021/01/16 00:23:52;;;;;;;3.15;2.35;;;;;;;-0.25;53.32;102103.09;687233;28;22205;-64
2021/01/16 00:24:13;;;;;;;3.17;2.30;;;;;;;-0.26;53.22;102110.19;686563;28;46298;-64
2021/01/16 00:24:35;;;;;;;1.95;1.85;;;;;;;-0.24;53.34;102112.78;687998;28;1083;-64
2021/01/16 00:24:58;;;;;;;2.20;2.08;;;;;;;-0.24;53.33;102112.78;686794;28;22170;-64
2021/01/16 00:25:19;;;;;;;2.40;2.20;;;;;;;-0.23;53.44;102111.84;684514;28;91008;-64
2021/01/16 00:25:42;;;;;;;2.55;2.35;;;;;;;-0.25;53.12;102108.38;687154;28;21485;-64
2021/01/16 00:26:03;;;;;;;2.15;1.95;;;;;;;-0.26;52.87;102106.69;685496;28;69259;-64
2021/01/16 00:26:24;;;;;;;2.03;1.92;;;;;;;-0.27;52.97;102111.13;687415;28;22760;-64
2021/01/16 00:26:46;;;;;;;1.95;1.85;;;;;;;-0.26;53.05;102107.53;686786;28;22459;-63
2021/01/16 00:27:07;;;;;;;1.90;1.80;;;;;;;-0.25;53.26;102105.72;687277;28;22398;-64
2021/01/16 00:27:29;;;;;;;2.00;1.90;;;;;;;-0.25;53.50;102109.28;686545;28;46381;-64
2021/01/16 00:27:50;;;;;;;2.25;2.15;;;;;;;-0.25;53.47;102113.69;686368;28;47214;-64
2021/01/16 00:28:16;;;;;;;2.25;2.08;;;;;;;-0.23;53.50;102106.53;687026;28;21558;-64
2021/01/16 00:28:37;;;;;;;3.03;2.40;;;;;;;-0.23;53.13;102109.19;683781;28;122682;-64
2021/01/16 00:28:59;;;;;;;2.40;2.20;;;;;;;-0.24;52.98;102108.31;688114;28;878;-64
2021/01/16 00:29:20;;;;;;;2.13;2.00;;;;;;;-0.23;53.36;102114.50;686823;28;37324;-64
2021/01/16 00:29:42;;;;;;;2.30;2.10;;;;;;;-0.22;53.23;102110.91;686896;28;21050;-64
2021/01/16 00:30:04;;;;;;;2.30;2.10;;;;;;;-0.24;53.29;102107.47;686140;28;46238;-64
2021/01/16 00:30:27;;;;;;;2.25;2.15;;;;;;;-0.22;53.13;102114.44;686351;28;46357;-63
2021/01/16 00:30:49;;;;;;;2.67;2.10;;;;;;;-0.20;53.16;102114.38;685380;28;67443;-64
2021/01/16 00:31:11;;;;;;;2.35;2.10;;;;;;;-0.22;53.19;102111.78;686604;28;44409;-64
2021/01/16 00:31:32;;;;;;;2.40;2.20;;;;;;;-0.21;53.07;102112.63;686677;28;38434;-63
2021/01/16 00:31:54;;;;;;;2.17;2.08;;;;;;;-0.21;52.93;102113.47;686781;28;14469;-63
2021/01/16 00:32:15;;;;;;;2.00;1.90;;;;;;;-0.19;53.22;102110.75;686202;28;45054;-64
2021/01/16 00:32:37;;;;;;;2.20;2.10;;;;;;;-0.22;52.84;102110.91;687013;28;20367;-64
2021/01/16 00:32:58;;;;;;;2.10;2.00;;;;;;;-0.21;53.03;102102.84;686603;28;44388;-64
2021/01/16 00:33:21;;;;;;;1.90;1.80;;;;;;;-0.21;53.08;102112.63;687378;28;22405;-64
2021/01/16 00:33:42;;;;;;;2.17;2.00;;;;;;;-0.19;52.96;102114.28;686006;28;54018;-64
2021/01/16 00:34:04;;;;;;;2.30;2.15;;;;;;;-0.19;52.96;102110.75;686856;28;32912;-64
2021/01/16 00:34:25;;;;;;;2.30;2.10;;;;;;;-0.19;53.00;102108.97;687327;28;23548;-63
2021/01/16 00:34:46;;;;;;;2.20;2.00;;;;;;;-0.19;52.79;102102.78;687117;28;22663;-64
2021/01/16 00:35:10;;;;;;;2.33;2.22;;;;;;;-0.19;52.62;102116.06;688077;28;1156;-63
2021/01/16 00:35:33;;;;;;;2.50;2.30;;;;;;;-0.20;52.61;102112.56;684626;28;90733;-64
2021/01/16 00:35:55;;;;;;;2.38;2.17;;;;;;;-0.19;52.69;102105.44;685472;28;67555;-63
2021/01/16 00:36:16;;;;;;;2.40;2.20;;;;;;;-0.19;52.76;102111.63;686275;28;41935;-63
2021/01/16 00:36:38;;;;;;;2.40;2.20;;;;;;;-0.19;52.71;102116.06;686373;28;45250;-64
2021/01/16 00:37:00;;;;;;;2.50;2.10;;;;;;;-0.19;52.82;102116.06;686919;28;22154;-63
2021/01/16 00:37:21;;;;;;;2.13;1.98;;;;;;;-0.19;52.51;102105.44;686238;28;44398;-64
2021/01/16 00:37:43;;;;;;;2.65;2.03;;;;;;;-0.20;52.59;102114.38;686926;28;21305;-64
2021/01/16 00:38:04;;;;;;;2.10;2.00;;;;;;;-0.20;53.00;102111.72;685679;28;69422;-64
2021/01/16 00:38:27;;;;;;;2.00;1.90;;;;;;;-0.20;52.89;102119.69;687171;28;22550;-64
2021/01/16 00:38:48;;;;;;;3.03;2.15;;;;;;;-0.20;52.87;102111.72;685351;28;69860;-64
2021/01/16 00:39:10;;;;;;;3.08;2.20;;;;;;;-0.20;53.23;102109.91;687317;28;21627;-62
2021/01/16 00:39:31;;;;;;;2.38;2.17;;;;;;;-0.19;53.02;102110.75;687259;28;21528;-63
2021/01/16 00:39:54;;;;;;;2.90;2.30;;;;;;;-0.20;52.82;102109.06;687213;28;21541;-64
2021/01/16 00:40:17;;;;;;;2.42;2.22;;;;;;;-0.19;52.64;102116.06;685419;28;69341;-63
2021/01/16 00:40:39;;;;;;;2.45;2.25;;;;;;;-0.20;52.81;102106.41;684808;28;89673;-64
2021/01/16 00:41:00;;;;;;;2.22;2.03;;;;;;;-0.21;52.31;102108.16;686967;28;22418;-63
2021/01/16 00:41:21;;;;;;;2.08;1.98;;;;;;;-0.19;52.67;102113.41;686187;28;46213;-64
2021/01/16 00:41:43;;;;;;;2.17;1.98;;;;;;;-0.20;52.78;102101.09;687197;28;23325;-63
2021/01/16 00:42:05;;;;;;;2.40;2.05;;;;;;;-0.19;53.04;102110.75;686441;28;46293;-64
2021/01/16 00:42:26;;;;;;;2.20;2.05;;;;;;;-0.19;53.27;102106.31;686052;28;46429;-64
2021/01/16 00:42:50;;;;;;;2.53;2.33;;;;;;;-0.18;52.98;102115.16;686988;28;23372;-64
2021/01/16 00:43:13;;;;;;;2.13;2.03;;;;;;;-0.20;53.00;102112.56;685673;28;63371;-64
2021/01/16 00:43:35;;;;;;;2.30;2.10;;;;;;;-0.19;53.01;102110.75;683664;28;93073;-64
2021/01/16 00:43:56;;;;;;;2.30;2.10;;;;;;;-0.18;52.67;102109.84;687113;28;17939;-64
2021/01/16 00:44:17;;;;;;;2.28;2.17;;;;;;;-0.18;53.36;102112.50;687298;28;46362;-64
2021/01/16 00:44:38;;;;;;;2.35;2.22;;;;;;;-0.17;53.17;102116.88;685836;28;21654;-64
2021/01/16 00:45:00;;;;;;;2.30;2.08;;;;;;;-0.19;52.98;102108.97;686492;28;22331;-64
2021/01/16 00:45:22;;;;;;;2.35;2.15;;;;;;;-0.18;52.88;102109.84;686043;28;45391;-64
2021/01/16 00:45:44;;;;;;;2.22;2.08;;;;;;;-0.20;52.88;102109.06;685345;28;46322;-64
2021/01/16 00:46:06;;;;;;;2.03;1.92;;;;;;;-0.18;53.00;102115.16;685838;28;37784;-64
2021/01/16 00:46:28;;;;;;;2.45;2.25;;;;;;;-0.19;52.58;102116.06;686837;28;44192;-64
2021/01/16 00:46:50;;;;;;;2.47;2.30;;;;;;;-0.19;52.89;102114.28;688023;28;44449;-64
2021/01/16 00:47:11;;;;;;;2.20;2.10;;;;;;;-0.18;52.85;102120.44;686153;28;45958;-63
2021/01/16 00:47:33;;;;;;;2.10;2.00;;;;;;;-0.17;52.78;102110.69;684092;28;22491;-63
2021/01/16 00:47:55;;;;;;;2.03;1.92;;;;;;;-0.19;52.54;102114.28;680596;29;46440;-62
2021/01/16 00:48:18;;;;;;;2.00;1.90;;;;;;;-0.19;52.60;102114.28;682176;28;22405;-62
2021/01/16 00:48:40;;;;;;;2.10;2.00;;;;;;;-0.19;52.79;102116.94;678759;28;92235;-62
2021/01/16 00:49:02;;;;;;;2.00;1.90;;;;;;;-0.18;52.91;102115.16;681911;28;36534;-61
2021/01/16 00:49:23;;;;;;;2.45;2.25;;;;;;;-0.19;52.90;102111.63;685582;28;22267;-64
2021/01/16 00:49:45;;;;;;;2.60;2.40;;;;;;;-0.18;52.89;102112.50;685269;28;22387;-62
2021/01/16 00:50:09;;;;;;;2.45;2.25;;;;;;;-0.17;53.15;102111.56;685851;28;46345;-61
2021/01/16 00:50:30;;;;;;;2.25;2.05;;;;;;;-0.16;53.24;102112.41;683991;28;90317;-62
2021/01/16 00:50:52;;;;;;;2.38;2.13;;;;;;;-0.17;53.27;102108.03;684021;28;22355;-62
2021/01/16 00:51:20;;;;;;;2.28;2.17;;;;;;;-0.16;53.18;102113.25;680453;28;133169;-62
2021/01/16 00:51:41;;;;;;;2.20;2.00;;;;;;;-0.16;53.28;102104.44;683150;28;45212;-62
2021/01/16 00:52:03;;;;;;;2.20;2.00;;;;;;;-0.16;52.96;102107.94;682896;28;22321;-62
2021/01/16 00:52:24;;;;;;;2.30;2.10;;;;;;;-0.14;53.33;102113.19;681762;28;46420;-62
2021/01/16 00:52:53;;;;;;;3.40;2.30;;;;;;;-0.14;53.46;102103.44;683797;28;22131;-63
2021/01/16 00:53:16;;;;;;;2.17;2.00;;;;;;;-0.13;53.63;102112.25;678847;28;137978;-63
2021/01/16 00:53:46;;;;;;;2.03;1.92;;;;;;;-0.13;53.33;102107.81;678731;28;131843;-65
2021/01/16 00:54:08;;;;;;;2.20;2.10;;;;;;;-0.13;53.29;102110.47;683632;28;44368;-62
2021/01/16 00:54:29;;;;;;;2.30;2.20;;;;;;;-0.14;53.23;102111.41;684367;28;22394;-60
2021/01/16 00:54:51;;;;;;;2.10;2.00;;;;;;;-0.14;53.08;102106.09;683034;28;45291;-63
2021/01/16 00:55:13;;;;;;;2.50;2.30;;;;;;;-0.13;53.15;102107.81;685477;28;16689;-58
2021/01/16 00:55:35;;;;;;;3.10;2.20;;;;;;;-0.13;53.18;102107.81;682817;28;46367;-63
2021/01/16 00:55:57;;;;;;;2.35;2.20;;;;;;;-0.12;52.80;102108.69;681874;28;70736;-62
2021/01/16 00:56:19;;;;;;;2.10;2.00;;;;;;;-0.13;52.71;102109.63;680023;29;45315;-61
2021/01/16 00:56:54;;;;;;;2.40;2.25;;;;;;;-0.12;53.14;102114.00;676977;29;138334;-64
2021/01/16 00:57:17;;;;;;;2.30;2.10;;;;;;;-0.11;53.21;102110.38;679139;29;91683;-60
2021/01/16 00:57:38;;;;;;;2.20;2.10;;;;;;;-0.11;53.07;102113.03;681496;29;22348;-63
2021/01/16 00:58:08;;;;;;;2.15;2.05;;;;;;;-0.11;53.29;102111.28;677450;28;138191;-62
2021/01/16 00:58:30;;;;;;;2.22;2.10;;;;;;;-0.10;53.35;102117.44;678479;29;113915;-61
2021/01/16 00:59:11;;;;;;;2.60;2.40;;;;;;;-0.12;52.96;102101.56;678668;28;137550;-60
2021/01/16 00:59:42;;;;;;;2.40;2.20;;;;;;;-0.11;53.06;102108.63;680025;28;137920;-59
2021/01/16 01:00:06;;;;;;;2.30;2.10;;;;;;;-0.12;52.92;102111.34;684166;28;21515;-63
2021/01/16 01:00:35;;;;;;;2.58;2.38;;;;;;;-0.11;52.98;102116.59;682715;28;136475;-60
2021/01/16 01:00:56;;;;;;;2.53;2.33;;;;;;;-0.12;52.95;102108.69;687297;28;5330;-62
2021/01/16 01:01:23;;;;;;;2.47;2.35;;;;;;;-0.14;52.96;102111.41;679694;28;136158;-63
2021/01/16 01:01:46;;;;;;;2.20;2.10;;;;;;;-0.12;52.75;102111.34;685390;28;23969;-64
2021/01/16 01:02:08;;;;;;;2.53;2.33;;;;;;;-0.12;52.80;102111.34;682547;28;67514;-63
2021/01/16 01:02:29;;;;;;;2.50;2.30;;;;;;;-0.12;53.24;102112.19;683650;28;45978;-62
2021/01/16 01:02:51;;;;;;;2.90;2.30;;;;;;;-0.13;52.99;102109.63;683975;28;21812;-60
2021/01/16 01:03:15;;;;;;;2.40;2.20;;;;;;;-0.12;52.78;102112.19;684773;28;22322;-64
2021/01/16 01:03:36;;;;;;;2.30;2.10;;;;;;;-0.12;53.19;102112.19;685493;28;64323;-63
2021/01/16 01:03:57;;;;;;;2.15;2.00;;;;;;;-0.12;53.16;102114.00;686571;28;30785;-64
2021/01/16 01:04:19;;;;;;;2.20;2.10;;;;;;;-0.12;53.35;102112.19;686978;28;22183;-61
2021/01/16 01:04:40;;;;;;;2.45;2.25;;;;;;;-0.12;53.38;102106.88;686596;28;22477;-63
2021/01/16 01:05:03;;;;;;;2.50;2.30;;;;;;;-0.12;53.38;102111.34;686323;28;46265;-63
2021/01/16 01:05:25;;;;;;;2.50;2.30;;;;;;;-0.13;53.32;102106.97;685152;28;70651;-61
2021/01/16 01:05:46;;;;;;;2.50;2.30;;;;;;;-0.13;53.53;102109.63;686531;28;22215;-64
2021/01/16 01:06:08;;;;;;;2.40;2.20;;;;;;;-0.13;53.60;102105.16;686505;28;46586;-62
2021/01/16 01:06:30;;;;;;;2.17;2.08;;;;;;;-0.16;53.39;102109.75;687275;28;23502;-62
2021/01/16 01:06:51;;;;;;;2.53;2.20;;;;;;;-0.13;53.54;102117.56;685634;28;46337;-61
2021/01/16 01:07:12;;;;;;;2.40;2.20;;;;;;;-0.15;53.25;102109.69;687317;28;22423;-62
2021/01/16 01:07:34;;;;;;;2.20;2.10;;;;;;;-0.14;53.62;102116.72;685506;28;45254;-63
2021/01/16 01:07:55;;;;;;;2.47;2.28;;;;;;;-0.14;53.38;102113.19;687083;28;22368;-62
2021/01/16 01:08:17;;;;;;;2.60;2.30;;;;;;;-0.15;53.39;102111.50;686263;28;46303;-63
2021/01/16 01:08:38;;;;;;;2.30;2.20;;;;;;;-0.15;52.97;102114.16;687849;28;913;-62
2021/01/16 01:08:59;;;;;;;2.47;2.28;;;;;;;-0.14;53.17;102113.19;686522;28;44338;-64
2021/01/16 01:09:20;;;;;;;2.50;2.30;;;;;;;-0.15;53.36;102109.69;687554;28;3675;-64
2021/01/16 01:09:43;;;;;;;2.42;2.22;;;;;;;-0.16;53.38;102113.25;686894;28;16190;-65
2021/01/16 01:10:06;;;;;;;2.22;2.10;;;;;;;-0.14;53.51;102115.84;685494;28;69550;-62
2021/01/16 01:10:30;;;;;;;2.20;1.90;;;;;;;-0.15;53.30;102107.03;686382;28;46342;-60
2021/01/16 01:10:51;;;;;;;1.90;1.80;;;;;;;-0.14;53.46;102108.75;683127;28;115383;-61
2021/01/16 01:11:15;;;;;;;2.00;1.90;;;;;;;-0.14;53.11;102119.38;687129;28;13371;-62
2021/01/16 01:11:37;;;;;;;2.28;2.17;;;;;;;-0.14;53.20;102113.19;687702;28;835;-64
2021/01/16 01:11:58;;;;;;;2.30;2.20;;;;;;;-0.15;53.05;102109.69;687755;28;6842;-63
2021/01/16 01:12:20;;;;;;;2.30;2.20;;;;;;;-0.15;53.41;102109.69;687219;28;21484;-62
2021/01/16 01:12:42;;;;;;;3.10;2.10;;;;;;;-0.14;53.58;102114.06;686007;28;45250;-62
2021/01/16 01:13:03;;;;;;;3.75;2.55;;;;;;;-0.13;53.54;102110.47;687285;28;21491;-61
2021/01/16 01:13:24;;;;;;;2.30;2.10;;;;;;;-0.13;53.62;102114.91;686425;28;47793;-64
2021/01/16 01:13:50;;;;;;;2.15;2.05;;;;;;;-0.14;53.56;102113.19;686265;28;21531;-63
2021/01/16 01:14:11;;;;;;;2.25;2.10;;;;;;;-0.13;53.81;102110.47;683321;28;138792;-61
2021/01/16 01:14:32;;;;;;;2.13;2.03;;;;;;;-0.14;53.69;102114.06;687096;28;22398;-60
2021/01/16 01:14:54;;;;;;;2.38;2.17;;;;;;;-0.13;53.39;102117.56;687150;28;22416;-63
2021/01/16 01:15:15;;;;;;;3.03;2.10;;;;;;;-0.15;53.54;102108.84;686263;28;45275;-61
2021/01/16 01:15:37;;;;;;;2.50;2.30;;;;;;;-0.13;53.43;102114.91;687385;28;16838;-61
2021/01/16 01:15:58;;;;;;;2.50;2.30;;;;;;;-0.12;53.83;102114.84;685989;28;46334;-62
2021/01/16 01:16:20;;;;;;;2.20;2.10;;;;;;;-0.12;53.77;102114.84;687263;28;21560;-63
2021/01/16 01:16:41;;;;;;;2.15;2.05;;;;;;;-0.14;53.37;102119.38;685889;28;46320;-61
2021/01/16 01:17:13;;;;;;;2.20;2.10;;;;;;;-0.14;53.38;102113.19;686858;28;23473;-61
2021/01/16 01:17:35;;;;;;;2.22;2.13;;;;;;;-0.14;53.36;102116.72;682131;28;160665;-62
2021/01/16 01:17:58;;;;;;;2.15;2.05;;;;;;;-0.12;53.57;102119.31;686768;28;21541;-61
2021/01/16 01:18:20;;;;;;;2.13;1.92;;;;;;;-0.12;53.57;102121.97;685384;28;67505;-61
2021/01/16 01:18:41;;;;;;;1.98;1.88;;;;;;;-0.13;53.70;102112.25;685625;28;46408;-60
2021/01/16 01:19:02;;;;;;;2.25;2.05;;;;;;;-0.13;53.46;102115.78;687214;28;21542;-62
2021/01/16 01:19:24;;;;;;;2.45;2.30;;;;;;;-0.13;53.61;102110.47;687887;28;21536;-65
2021/01/16 01:19:45;;;;;;;2.25;2.15;;;;;;;-0.13;53.90;102109.63;687494;28;46479;-62
2021/01/16 01:20:08;;;;;;;2.42;2.22;;;;;;;-0.13;53.97;102106.97;688496;28;22509;-62
2021/01/16 01:20:29;;;;;;;2.35;2.20;;;;;;;-0.14;53.59;102111.41;686626;28;69289;-62
2021/01/16 01:20:51;;;;;;;2.38;2.20;;;;;;;-0.13;54.10;102107.81;687377;28;45262;-63
2021/01/16 01:21:13;;;;;;;2.50;2.30;;;;;;;-0.13;54.09;102107.81;684119;28;22407;-62
2021/01/16 01:21:35;;;;;;;2.13;2.03;;;;;;;-0.12;54.34;102104.22;684255;28;43668;-63
2021/01/16 01:21:56;;;;;;;2.25;2.15;;;;;;;-0.12;54.44;102106.88;685692;28;45281;-63
2021/01/16 01:22:17;;;;;;;2.20;2.00;;;;;;;-0.12;54.13;102109.53;686800;28;22391;-61
2021/01/16 01:22:38;;;;;;;2.50;2.13;;;;;;;-0.12;53.52;102104.22;686595;28;24650;-65
2021/01/16 01:23:01;;;;;;;2.92;2.33;;;;;;;-0.13;53.54;102105.16;686526;28;37548;-64
2021/01/16 01:23:22;;;;;;;2.60;2.40;;;;;;;-0.13;53.40;102107.81;686529;28;45328;-62
2021/01/16 01:23:43;;;;;;;2.30;2.20;;;;;;;-0.13;53.60;102113.13;689360;28;22393;-62
2021/01/16 01:24:05;;;;;;;2.30;2.20;;;;;;;-0.13;53.76;102107.81;689164;28;35490;-64
2021/01/16 01:24:27;;;;;;;2.50;2.30;;;;;;;-0.11;53.66;102113.94;689073;28;37814;-62
2021/01/16 01:24:48;;;;;;;2.33;2.20;;;;;;;-0.13;53.73;102106.97;689041;28;44784;-62
2021/01/16 01:25:11;;;;;;;2.17;2.00;;;;;;;-0.12;53.41;102108.69;687890;28;23506;-65
2021/01/16 01:25:33;;;;;;;2.25;2.05;;;;;;;-0.16;53.46;102110.59;684970;28;36685;-63
2021/01/16 01:25:54;;;;;;;2.60;2.40;;;;;;;-0.14;53.51;102114.06;684770;28;46390;-62
2021/01/16 01:26:15;;;;;;;2.47;2.28;;;;;;;-0.14;53.60;102111.41;685619;28;21497;-62
2021/01/16 01:26:37;;;;;;;2.47;2.28;;;;;;;-0.14;53.53;102113.19;685049;28;42146;-62
2021/01/16 01:26:59;;;;;;;2.50;2.30;;;;;;;-0.15;53.58;102117.66;684568;28;46533;-63
2021/01/16 01:27:20;;;;;;;2.40;2.25;;;;;;;-0.16;53.45;102113.25;687685;28;21600;-64
2021/01/16 01:27:43;;;;;;;2.50;2.30;;;;;;;-0.17;53.31;102108.91;688982;28;44393;-62
2021/01/16 01:28:04;;;;;;;2.20;2.10;;;;;;;-0.17;53.37;102116.00;688833;28;47163;-65
2021/01/16 01:28:25;;;;;;;2.03;1.92;;;;;;;-0.17;53.26;102116.88;688485;28;44388;-62
2021/01/16 01:28:47;;;;;;;2.58;2.38;;;;;;;-0.17;53.57;102108.03;689721;28;10258;-64
2021/01/16 01:29:08;;;;;;;2.63;2.42;;;;;;;-0.18;53.61;102109.84;689146;28;40311;-62
2021/01/16 01:29:30;;;;;;;2.55;2.35;;;;;;;-0.17;53.32;102116.00;689684;28;21549;-63
2021/01/16 01:29:51;;;;;;;2.50;2.30;;;;;;;-0.20;53.50;102107.25;689524;28;22477;-62
2021/01/16 01:30:14;;;;;;;2.30;2.20;;;;;;;-0.20;53.49;102114.38;689954;28;19188;-63
2021/01/16 01:30:36;;;;;;;2.40;2.30;;;;;;;-0.20;53.79;102109.91;688974;28;37178;-62
2021/01/16 01:30:57;;;;;;;2.60;2.40;;;;;;;-0.17;53.95;102113.34;688964;28;45385;-61
2021/01/16 01:31:18;;;;;;;2.45;2.25;;;;;;;-0.19;53.51;102108.97;689532;28;31551;-63
2021/01/16 01:31:39;;;;;;;2.92;2.40;;;;;;;-0.19;53.45;102116.94;689975;28;16465;-62
2021/01/16 01:32:01;;;;;;;2.40;2.20;;;;;;;-0.20;53.28;102103.75;689882;28;21713;-62
2021/01/16 01:32:23;;;;;;;2.10;2.00;;;;;;;-0.19;53.57;102108.09;688750;28;47547;-65
2021/01/16 01:32:45;;;;;;;2.28;2.17;;;;;;;-0.19;52.92;102108.09;688972;28;44336;-62
2021/01/16 01:33:13;;;;;;;2.50;2.30;;;;;;;-0.21;53.11;102100.22;689117;28;44388;-62
2021/01/16 01:33:35;;;;;;;2.33;2.13;;;;;;;-0.19;53.19;102108.97;685576;28;137843;-63
2021/01/16 01:33:56;;;;;;;2.40;2.20;;;;;;;-0.17;53.12;102111.56;689765;28;23054;-65
2021/01/16 01:34:17;;;;;;;2.47;2.38;;;;;;;-0.16;53.18;102117.72;688655;28;44131;-61
2021/01/16 01:34:38;;;;;;;2.60;2.40;;;;;;;-0.16;53.25;102115.06;689306;28;22405;-64
2021/01/16 01:35:00;;;;;;;2.50;2.30;;;;;;;-0.16;53.27;102115.91;689710;28;22389;-62
2021/01/16 01:35:22;;;;;;;2.58;2.38;;;;;;;-0.15;53.27;102114.16;685615;28;46355;-62
2021/01/16 01:35:44;;;;;;;2.53;2.33;;;;;;;-0.14;53.26;102118.50;686327;28;46170;-62
2021/01/16 01:36:06;;;;;;;2.47;2.28;;;;;;;-0.15;53.48;102112.34;685960;28;45303;-60
2021/01/16 01:36:27;;;;;;;2.45;2.25;;;;;;;-0.14;53.62;102110.53;686114;28;45341;-62
2021/01/16 01:36:49;;;;;;;2.33;2.13;;;;;;;-0.15;53.39;102112.34;686988;28;22424;-62
2021/01/16 01:37:10;;;;;;;2.90;2.22;;;;;;;-0.15;53.22;102108.84;685882;28;66988;-62
2021/01/16 01:37:31;;;;;;;2.40;2.10;;;;;;;-0.14;53.37;102118.50;689465;28;23311;-62
2021/01/16 01:37:55;;;;;;;2.50;2.30;;;;;;;-0.15;53.30;102104.38;689426;28;23209;-61
2021/01/16 01:38:17;;;;;;;2.65;2.45;;;;;;;-0.15;53.02;102109.69;687137;28;92010;-62
2021/01/16 01:38:38;;;;;;;2.50;2.33;;;;;;;-0.15;53.39;102115.00;688667;28;46457;-67
2021/01/16 01:38:59;;;;;;;2.30;2.20;;;;;;;-0.16;53.25;102117.72;689917;28;22547;-62
2021/01/16 01:39:21;;;;;;;2.40;2.20;;;;;;;-0.15;53.69;102108.84;686354;28;23050;-64
2021/01/16 01:39:42;;;;;;;2.53;2.25;;;;;;;-0.15;53.59;102115.00;686692;28;32545;-61
2021/01/16 01:40:05;;;;;;;2.50;2.30;;;;;;;-0.15;53.44;102108.84;686605;28;23433;-62
2021/01/16 01:40:27;;;;;;;2.42;2.30;;;;;;;-0.17;53.46;102106.25;684607;28;67543;-63
2021/01/16 01:40:48;;;;;;;2.60;2.40;;;;;;;-0.16;53.11;102104.44;685671;28;44367;-61
2021/01/16 01:41:10;;;;;;;2.55;2.35;;;;;;;-0.17;53.24;102116.00;687583;28;21568;-62
2021/01/16 01:41:36;;;;;;;2.30;2.17;;;;;;;-0.17;53.41;102108.03;689028;28;46445;-61
2021/01/16 01:41:58;;;;;;;2.70;2.50;;;;;;;-0.16;53.51;102107.09;686161;28;138285;-62
2021/01/16 01:42:20;;;;;;;2.60;2.40;;;;;;;-0.17;53.22;102108.91;688947;28;45198;-64
2021/01/16 01:42:41;;;;;;;2.50;2.30;;;;;;;-0.17;53.22;102111.56;688738;28;44402;-64
2021/01/16 01:43:03;;;;;;;2.30;2.17;;;;;;;-0.18;53.38;102109.84;689038;28;45299;-63
2021/01/16 01:43:24;;;;;;;2.33;2.20;;;;;;;-0.17;53.39;102105.38;689911;28;21501;-62
2021/01/16 01:43:47;;;;;;;2.50;2.30;;;;;;;-0.17;53.44;102108.91;688843;28;45995;-62
2021/01/16 01:44:08;;;;;;;2.50;2.30;;;;;;;-0.17;53.60;102103.59;688226;28;44950;-65
2021/01/16 01:44:30;;;;;;;2.40;2.20;;;;;;;-0.17;53.59;102105.38;688982;28;46309;-64
2021/01/16 01:44:51;;;;;;;2.20;2.10;;;;;;;-0.15;53.69;102109.69;689625;28;22378;-64
2021/01/16 01:45:13;;;;;;;2.35;2.15;;;;;;;-0.16;53.67;102102.63;685923;28;46876;-62
2021/01/16 01:45:34;;;;;;;2.60;2.40;;;;;;;-0.15;53.51;102104.38;686950;28;22410;-61
2021/01/16 01:45:55;;;;;;;2.65;2.45;;;;;;;-0.15;53.50;102099.06;686676;28;23508;-62